Lima, OH (45806)

9:03 AM EDT on June 30, 2015 (GMT -0400)
Cridersville, OH | | Change Station
CLOSE
Current Station
Personal Weather Station
Location: Cridersville, OH
Elevation: 876 ft
Nearby Weather Stations

Elev 876 ft 40.65 °N, 84.15 °W | Updated 6 seconds ago

Overcast
Overcast
66.6 °F
Feels Like 66.6 °F
N
2.7
Wind Variable Wind from West
Gusts 3.7 mph

Today
High -- | Low -- °F
--% Chance of Precip.
Yesterday
High -- | Low -- °F
Precip. -- in
6:08 AM 9:11 PM
Waxing Gibbous, 97% visible
Pressure 29.84 in
Visibility 5.0 miles
Clouds Overcast 1400 ft
Dew Point 63 °F
Humidity 87%
Rainfall in
Snow Depth Not available.
UV 1 out of 12
Pollen 2.40 out of 12
Air Quality Not available.
Flu Activity Sporadic
METAR KAOH 301253Z AUTO 17005KT 5SM BR OVC014 18/17 A2985 RMK AO2 SLP105 T01780167

More Conditions Fewer Conditions

Pressure 29.84 in
Visibility 5.0 miles
Clouds Overcast 1400 ft
Dew Point 63 °F
Humidity 87%
Rainfall in
Snow Depth Not available.
UV 1 out of 12
Pollen 2.40 out of 12
Air Quality Not available.
Flu Activity Sporadic
METAR KAOH 301253Z AUTO 17005KT 5SM BR OVC014 18/17 A2985 RMK AO2 SLP105 T01780167

More Conditions Fewer Conditions

10-Day Weather Forecast

×

Almanac

Astronomy

Jun. 30, 2015 Rise Set
Actual Time
Civil Twilight
Nautical Twilight
Astronomical Twilight
Moon
Length of Visible Light
Length of Day
Tomorrow will be .
, % of the Moon is Illuminated

Today's Extremes

State Highs State Lows

Community

WunderPhotos

Upload Photos

1,833,990 photos uploaded!

WunderBlogs® & News

Nearby

Air Quality

  Air Quality AQ Index Pollutant
Not available.

Snow Depth

Station Depth Elevation

Earthquake Activity

City Distance Mag. Time & Date
Minimum magnitude displayed is 2.5.

Coastal Water Temperatures

Place Temperature

Stations

Nearby Weather Stations

Station Location Temp. Windchill Dew Point Humidity Wind Precip. Elev Updated Type